Time;durP1;ratioP1;P1;durP2;ratioP2;P2;SDS_P1;SDS_P2;PMS_P1;PMS_P2;Temp;Humidity;BMP_temperature;BMP_pressure;BME280_temperature;BME280_humidity;BME280_pressure;Samples;Min_cycle;Max_cycle;Signal;HPM_P1;HPM_P2
2023/08/12 00:00:08;;;;;;;0.00;0.00;;;;;;;16.91;60.11;100375.59;4228241;33;20092;-95
2023/08/12 00:02:34;;;;;;;0.00;0.00;;;;;;;16.91;60.12;100373.81;4262993;33;20637;-96
2023/08/12 00:04:59;;;;;;;0.00;0.00;;;;;;;16.76;60.10;100385.91;4247987;33;20132;-96
2023/08/12 00:07:24;;;;;;;0.08;0.08;;;;;;;16.81;60.11;100386.56;4247056;33;20168;-96
2023/08/12 00:09:50;;;;;;;0.00;0.00;;;;;;;17.08;60.13;100379.13;4234490;33;20450;-96
2023/08/12 00:12:15;;;;;;;0.00;0.00;;;;;;;16.97;60.12;100381.41;4243507;33;20169;-96
2023/08/12 00:14:41;;;;;;;0.03;0.03;;;;;;;16.78;60.11;100381.44;4233217;33;20150;-96
2023/08/12 00:17:06;;;;;;;0.10;0.10;;;;;;;16.94;60.11;100378.94;4248397;33;20090;-96
2023/08/12 00:19:31;;;;;;;0.62;0.47;;;;;;;17.02;60.12;100371.50;4248956;33;20495;-96
2023/08/12 00:21:57;;;;;;;0.00;0.00;;;;;;;16.89;60.11;100373.03;4240244;33;20132;-96
2023/08/12 00:24:25;;;;;;;0.73;0.65;;;;;;;16.99;60.11;100370.81;4237353;33;20397;-96
2023/08/12 00:27:11;;;;;;;0.00;0.00;;;;;;;16.84;60.11;100370.66;4242821;33;20062;-96
2023/08/12 00:29:37;;;;;;;0.00;0.00;;;;;;;16.92;60.12;100370.25;4265886;33;20116;-96
2023/08/12 00:32:02;;;;;;;0.00;0.00;;;;;;;16.90;60.11;100363.38;4258305;33;20150;-96
2023/08/12 00:34:28;;;;;;;0.00;0.00;;;;;;;17.10;60.13;100368.53;4248144;33;20114;-96
2023/08/12 00:39:52;;;;;;;0.00;0.00;;;;;;;17.06;60.12;100377.50;4437558;28;20162;-95
2023/08/12 02:08:24;;;;;;;0.00;0.00;;;;;;;16.08;60.08;100379.37;4777324;27;20093;-94
2023/08/12 02:10:50;;;;;;;0.08;0.08;;;;;;;16.47;60.10;100378.50;4280945;33;20097;-95
2023/08/12 02:13:16;;;;;;;0.82;0.10;;;;;;;16.17;60.07;100381.62;4279979;33;20100;-95
2023/08/12 02:15:41;;;;;;;0.00;0.00;;;;;;;16.43;60.08;100369.91;4280655;33;20396;-95
2023/08/12 02:18:07;;;;;;;0.05;0.05;;;;;;;16.52;60.09;100376.50;4280579;33;20359;-95
2023/08/12 02:20:32;;;;;;;0.00;0.00;;;;;;;16.60;60.09;100368.28;4280848;33;20180;-96
2023/08/12 02:22:57;;;;;;;0.00;0.00;;;;;;;16.21;60.07;100375.31;4278339;33;20094;-95
2023/08/12 02:25:23;;;;;;;0.00;0.00;;;;;;;16.10;60.07;100374.09;4277855;33;20473;-95
2023/08/12 02:33:00;;;;;;;0.00;0.00;;;;;;;16.16;60.08;100373.81;4882716;28;20112;-96
2023/08/12 02:35:57;;;;;;;0.47;0.47;;;;;;;16.06;60.07;100365.47;4306429;33;20083;-96
2023/08/12 02:38:39;;;;;;;0.00;0.00;;;;;;;16.11;60.07;100370.53;4318861;33;20135;-96
2023/08/12 02:41:27;;;;;;;0.00;0.00;;;;;;;15.91;60.06;100371.41;4314989;33;20084;-96
2023/08/12 02:43:52;;;;;;;0.60;0.40;;;;;;;15.93;60.07;100372.19;4299736;33;20092;-96
2023/08/12 02:46:25;;;;;;;0.10;0.10;;;;;;;15.95;60.07;100368.59;4302360;33;20061;-96
2023/08/12 02:48:51;;;;;;;0.10;0.10;;;;;;;15.99;60.06;100371.06;4310078;33;20108;-96
2023/08/12 02:51:16;;;;;;;0.00;0.00;;;;;;;15.77;60.04;100374.62;4282755;33;20148;-96
2023/08/12 02:53:42;;;;;;;0.32;0.32;;;;;;;15.83;60.05;100361.22;4282781;33;20115;-96
2023/08/12 02:56:07;;;;;;;0.10;0.10;;;;;;;15.80;60.05;100365.78;4306965;33;20090;-96
2023/08/12 02:58:34;;;;;;;0.15;0.08;;;;;;;15.71;60.04;100364.41;4294485;33;20168;-96
2023/08/12 03:00:59;;;;;;;0.00;0.00;;;;;;;15.64;60.05;100362.97;4294764;33;20101;-96
2023/08/12 03:03:25;;;;;;;0.65;0.37;;;;;;;15.71;60.05;100369.66;4294674;33;20097;-96
2023/08/12 03:05:50;;;;;;;2.12;0.43;;;;;;;15.67;60.04;100362.00;4282584;33;20115;-96
2023/08/12 03:08:18;;;;;;;0.00;0.00;;;;;;;15.56;60.04;100363.25;4296751;33;20116;-96
2023/08/12 03:10:48;;;;;;;0.45;0.45;;;;;;;15.59;60.04;100363.16;4314978;33;20100;-96
2023/08/12 03:13:13;;;;;;;0.13;0.13;;;;;;;15.55;60.04;100361.53;4314852;33;20069;-95
2023/08/12 03:15:40;;;;;;;0.17;0.08;;;;;;;15.51;60.03;100365.22;4282740;33;20092;-95
2023/08/12 03:18:05;;;;;;;0.40;0.40;;;;;;;15.55;60.04;100360.69;4305126;33;20097;-96
2023/08/12 03:20:30;;;;;;;1.23;0.57;;;;;;;15.47;60.03;100368.06;4307570;33;20417;-96
2023/08/12 03:22:57;;;;;;;0.20;0.20;;;;;;;15.45;60.03;100368.12;4300979;33;20085;-96
2023/08/12 03:25:23;;;;;;;0.00;0.00;;;;;;;15.46;60.03;100368.97;4298136;33;20112;-96
2023/08/12 03:27:49;;;;;;;0.00;0.00;;;;;;;15.48;60.04;100370.59;4296480;33;20120;-96
2023/08/12 03:41:36;;;;;;;0.03;0.03;;;;;;;15.38;60.03;100374.56;4622949;28;20077;-96
2023/08/12 03:46:52;;;;;;;0.17;0.17;;;;;;;15.45;60.03;100383.00;4262377;33;20177;-95
2023/08/12 03:49:17;;;;;;;0.62;0.62;;;;;;;15.44;60.03;100376.06;4248533;33;22358;-95
2023/08/12 03:51:42;;;;;;;0.43;0.43;;;;;;;15.38;60.03;100381.53;4248943;33;20209;-96
2023/08/12 04:10:23;;;;;;;0.88;0.80;;;;;;;15.46;60.03;100382.09;4515590;28;20101;-96
2023/08/12 04:21:20;;;;;;;0.00;0.00;;;;;;;15.62;60.04;100389.28;4444665;28;20115;-96
2023/08/12 04:24:22;;;;;;;0.60;0.60;;;;;;;15.63;60.04;100391.00;4250448;33;20081;-96
2023/08/12 04:27:06;;;;;;;1.65;0.35;;;;;;;15.45;60.03;100389.09;4259756;33;20081;-96
2023/08/12 04:29:40;;;;;;;0.03;0.03;;;;;;;15.65;60.04;100397.03;4259832;33;20110;-96
2023/08/12 04:32:31;;;;;;;0.10;0.10;;;;;;;15.80;60.05;100398.12;4259933;33;20074;-96
2023/08/12 04:34:56;;;;;;;0.35;0.35;;;;;;;16.06;60.06;100399.59;4249381;33;20206;-96
2023/08/12 04:37:24;;;;;;;0.00;0.00;;;;;;;16.07;60.06;100400.47;4227636;33;20135;-94
2023/08/12 04:39:50;;;;;;;0.20;0.20;;;;;;;16.16;60.06;100400.06;4260752;33;20105;-96
2023/08/12 04:42:16;;;;;;;0.10;0.10;;;;;;;16.14;60.06;100400.16;4254121;33;20110;-96
2023/08/12 04:44:46;;;;;;;1.55;0.75;;;;;;;16.33;60.08;100401.94;4270098;33;20077;-96
2023/08/12 04:47:37;;;;;;;0.00;0.00;;;;;;;16.39;60.08;100399.03;4310662;28;20120;-96
2023/08/12 04:50:02;;;;;;;0.40;0.40;;;;;;;16.43;60.08;100393.56;4293884;33;20210;-96
2023/08/12 04:52:48;;;;;;;0.20;0.20;;;;;;;16.81;60.10;100396.22;4293170;33;20423;-96
2023/08/12 04:55:14;;;;;;;0.22;0.22;;;;;;;17.03;60.12;100394.25;4291423;33;20137;-95
2023/08/12 04:57:41;;;;;;;0.20;0.20;;;;;;;17.19;60.12;100395.22;4292663;33;20160;-96
2023/08/12 05:00:08;;;;;;;0.20;0.20;;;;;;;17.36;60.13;100394.41;4324068;27;20087;-96
2023/08/12 05:02:34;;;;;;;0.65;0.55;;;;;;;17.36;60.13;100402.28;4301176;33;20191;-96
2023/08/12 05:04:59;;;;;;;0.10;0.10;;;;;;;17.31;60.12;100395.56;4284576;33;20146;-96
2023/08/12 05:07:25;;;;;;;0.13;0.08;;;;;;;17.31;60.12;100392.94;4272511;33;20158;-96
2023/08/12 05:09:52;;;;;;;0.30;0.30;;;;;;;17.52;60.14;100391.88;4280863;33;20127;-96
2023/08/12 05:12:18;;;;;;;0.37;0.37;;;;;;;17.52;60.13;100389.22;4296556;33;20113;-96
2023/08/12 05:14:43;;;;;;;0.13;0.13;;;;;;;17.58;60.14;100390.69;4282691;33;20139;-96
2023/08/12 05:17:09;;;;;;;0.00;0.00;;;;;;;17.71;60.15;100389.16;4282336;33;20183;-96
2023/08/12 05:19:34;;;;;;;0.00;0.00;;;;;;;17.79;60.16;100397.53;4281051;33;20180;-96
2023/08/12 05:22:05;;;;;;;0.00;0.00;;;;;;;17.99;60.16;100392.09;4282297;33;20115;-96
2023/08/12 05:24:31;;;;;;;0.00;0.00;;;;;;;18.13;60.17;100393.13;4290765;33;20116;-95
2023/08/12 05:26:56;;;;;;;0.00;0.00;;;;;;;18.37;60.18;100387.41;4276531;33;20109;-94
2023/08/12 05:29:22;;;;;;;0.00;0.00;;;;;;;18.51;60.19;100391.94;4276400;33;20384;-94
2023/08/12 05:31:47;;;;;;;0.00;0.00;;;;;;;18.53;60.18;100381.31;4276098;33;20494;-95
2023/08/12 05:37:49;;;;;;;0.00;0.00;;;;;;;18.81;60.21;100389.41;4603264;27;20104;-92
2023/08/12 05:40:18;;;;;;;0.10;0.10;;;;;;;19.28;60.23;100381.44;4305124;33;20092;-96
2023/08/12 05:42:43;;;;;;;0.35;0.35;;;;;;;19.44;60.24;100385.84;4293418;33;20151;-94
2023/08/12 05:45:09;;;;;;;0.20;0.10;;;;;;;19.38;60.24;100379.09;4293829;33;20160;-94
2023/08/12 05:47:34;;;;;;;0.20;0.20;;;;;;;19.73;60.26;100377.06;4293441;33;20188;-94
2023/08/12 05:50:00;;;;;;;0.43;0.28;;;;;;;19.84;60.25;100376.41;4296326;33;20124;-96
2023/08/12 05:52:25;;;;;;;0.13;0.10;;;;;;;19.90;60.27;100381.34;4295081;33;20092;-96
2023/08/12 05:54:50;;;;;;;0.45;0.43;;;;;;;20.01;60.28;100380.69;4294031;33;20155;-92
2023/08/12 05:57:16;;;;;;;0.05;0.05;;;;;;;20.24;60.29;100377.47;4295062;33;20172;-95
2023/08/12 05:59:41;;;;;;;0.00;0.00;;;;;;;20.24;60.29;100382.75;4294133;33;20193;-94
2023/08/12 06:02:07;;;;;;;0.30;0.30;;;;;;;20.32;60.29;100382.28;4294289;33;20088;-91
2023/08/12 06:04:32;;;;;;;0.37;0.37;;;;;;;20.70;60.30;100374.62;4282260;33;20108;-93
2023/08/12 06:06:58;;;;;;;0.00;0.00;;;;;;;20.71;60.31;100371.03;4293933;33;20144;-95
2023/08/12 06:09:23;;;;;;;0.00;0.00;;;;;;;20.81;60.32;100372.13;4294166;33;20382;-95
2023/08/12 06:11:49;;;;;;;1.40;0.55;;;;;;;20.74;60.31;100371.66;4294610;33;20413;-95
2023/08/12 06:14:14;;;;;;;0.57;0.32;;;;;;;20.97;60.32;100359.59;4294237;33;20116;-95
2023/08/12 06:16:40;;;;;;;0.05;0.05;;;;;;;21.09;60.33;100365.91;4293939;33;20557;-94
2023/08/12 06:19:05;;;;;;;0.30;0.10;;;;;;;21.23;60.33;100367.62;4282254;33;20087;-94
2023/08/12 06:21:31;;;;;;;0.00;0.00;;;;;;;21.37;60.34;100375.53;4282338;33;20643;-94
2023/08/12 06:23:56;;;;;;;0.00;0.00;;;;;;;21.49;60.35;100364.09;4294325;33;20238;-94
2023/08/12 06:26:22;;;;;;;0.00;0.00;;;;;;;21.48;60.34;100372.16;4291719;33;20152;-93
2023/08/12 06:29:22;;;;;;;0.10;0.10;;;;;;;21.50;60.35;100370.25;4292474;33;20156;-93
2023/08/12 06:31:47;;;;;;;;;;;;;;;21.71;60.36;100374.94;4222477;33;20126;-94
2023/08/12 06:34:23;;;;;;;0.00;0.00;;;;;;;22.03;60.38;100377.19;4262955;33;20000;-96
2023/08/12 06:36:48;;;;;;;0.70;0.40;;;;;;;22.02;60.37;100367.56;4277564;33;20108;-92
2023/08/12 06:39:14;;;;;;;0.13;0.13;;;;;;;22.19;60.39;100367.22;4285192;33;20126;-95
2023/08/12 06:41:39;;;;;;;0.13;0.13;;;;;;;22.23;60.38;100368.69;4279806;33;20539;-93
2023/08/12 06:44:05;;;;;;;2.12;0.85;;;;;;;22.41;60.39;100365.72;4276887;33;20117;-93
2023/08/12 06:46:31;;;;;;;0.00;0.00;;;;;;;22.48;60.40;100367.00;4276997;33;20109;-92
2023/08/12 06:48:57;;;;;;;0.03;0.03;;;;;;;22.76;60.41;100357.88;4276613;33;20131;-91
2023/08/12 06:51:23;;;;;;;0.00;0.00;;;;;;;22.89;60.42;100356.03;4277031;33;20089;-92
2023/08/12 06:53:48;;;;;;;3.40;1.08;;;;;;;22.88;60.43;100362.31;4276622;33;20217;-90
2023/08/12 06:56:14;;;;;;;0.20;0.17;;;;;;;23.21;60.44;100361.63;4276789;33;20112;-90
2023/08/12 06:58:39;;;;;;;0.30;0.30;;;;;;;23.16;60.43;100356.66;4276397;33;20436;-91
2023/08/12 07:01:04;;;;;;;10.02;0.85;;;;;;;23.42;60.45;100359.16;4276988;33;20140;-94
2023/08/12 07:03:30;;;;;;;0.00;0.00;;;;;;;23.59;60.46;100361.41;4276955;33;20113;-90
2023/08/12 07:05:55;;;;;;;0.00;0.00;;;;;;;23.67;60.46;100359.03;4289149;33;20113;-96
2023/08/12 07:08:21;;;;;;;0.00;0.00;;;;;;;23.85;60.47;100362.06;4277077;33;20096;-94
2023/08/12 07:10:46;;;;;;;0.20;0.20;;;;;;;23.87;60.47;100360.97;4277655;33;20128;-92
2023/08/12 07:13:12;;;;;;;0.10;0.10;;;;;;;24.03;60.48;100359.78;4277149;33;20140;-93
2023/08/12 07:15:37;;;;;;;0.43;0.35;;;;;;;24.17;60.49;100357.75;4277427;33;20510;-95
2023/08/12 07:18:03;;;;;;;0.10;0.10;;;;;;;24.31;60.50;100358.50;4289424;33;20176;-93
2023/08/12 07:20:28;;;;;;;0.10;0.10;;;;;;;24.39;60.50;100359.59;4277456;33;20148;-94
2023/08/12 07:22:54;;;;;;;0.00;0.00;;;;;;;24.59;60.51;100357.97;4285605;33;20147;-94
2023/08/12 07:25:19;;;;;;;0.00;0.00;;;;;;;24.71;60.52;100357.00;4291621;33;20415;-94
2023/08/12 07:27:45;;;;;;;0.65;0.40;;;;;;;24.62;60.51;100355.09;4291888;33;20498;-93
2023/08/12 07:30:11;;;;;;;4.53;1.15;;;;;;;24.62;60.51;100352.41;4291643;33;20481;-94
2023/08/12 07:32:36;;;;;;;0.00;0.00;;;;;;;24.63;60.51;100359.44;4291583;33;20109;-91
2023/08/12 07:35:02;;;;;;;0.00;0.00;;;;;;;24.99;60.53;100354.75;4279345;33;20120;-91
2023/08/12 07:37:28;;;;;;;0.10;0.10;;;;;;;24.99;60.53;100352.09;4279365;33;20110;-92
2023/08/12 07:39:53;;;;;;;0.20;0.20;;;;;;;25.00;60.53;100359.09;4291634;33;20134;-92
2023/08/12 07:42:19;;;;;;;0.62;0.30;;;;;;;24.99;60.54;100357.41;4279543;33;20210;-92
2023/08/12 07:44:45;;;;;;;6.60;0.30;;;;;;;25.24;60.55;100358.91;4291307;33;20157;-91
2023/08/12 07:47:10;;;;;;;3.40;0.80;;;;;;;25.34;60.55;100351.84;4291265;33;20133;-94
2023/08/12 07:49:36;;;;;;;0.15;0.15;;;;;;;25.39;60.54;100354.97;4279708;33;20088;-95
2023/08/12 07:52:01;;;;;;;0.00;0.00;;;;;;;25.28;60.54;100350.50;4279741;33;20168;-94
2023/08/12 07:54:27;;;;;;;0.10;0.10;;;;;;;25.65;60.57;100347.41;4291760;33;20144;-95
2023/08/12 07:56:55;;;;;;;1.50;1.12;;;;;;;25.65;60.57;100353.59;4291830;33;20415;-95
2023/08/12 07:59:20;;;;;;;0.00;0.00;;;;;;;25.78;60.58;100353.41;4279842;33;20092;-94
2023/08/12 08:01:46;;;;;;;0.00;0.00;;;;;;;25.70;60.56;100355.87;4279032;33;20104;-94
2023/08/12 08:04:11;;;;;;;0.00;0.00;;;;;;;25.80;60.58;100351.47;4278941;33;20135;-95
2023/08/12 08:06:37;;;;;;;0.03;0.03;;;;;;;26.10;60.59;100342.63;4290934;33;20484;-94
2023/08/12 08:09:03;;;;;;;0.15;0.15;;;;;;;26.09;60.58;100345.44;4290889;33;20132;-94
2023/08/12 08:11:29;;;;;;;0.65;0.65;;;;;;;26.24;60.59;100341.41;4289771;33;20120;-95
2023/08/12 08:13:55;;;;;;;0.05;0.05;;;;;;;26.36;60.60;100340.38;4290638;33;20184;-94
2023/08/12 08:16:20;;;;;;;0.30;0.30;;;;;;;26.28;60.60;100340.19;4292686;33;20093;-94
2023/08/12 08:18:46;;;;;;;0.00;0.00;;;;;;;26.68;60.62;100334.81;4301189;33;20123;-92
2023/08/12 08:21:11;;;;;;;0.60;0.40;;;;;;;26.72;60.63;100340.72;4290575;33;22198;-92
2023/08/12 08:23:37;;;;;;;0.10;0.10;;;;;;;26.76;60.62;100336.81;4278869;33;20152;-92
2023/08/12 08:26:02;;;;;;;1.08;0.98;;;;;;;26.64;60.61;100337.91;4278514;33;20119;-93
2023/08/12 08:28:28;;;;;;;3.22;0.82;;;;;;;26.84;60.63;100334.28;4278851;33;20096;-92
2023/08/12 08:30:53;;;;;;;0.15;0.10;;;;;;;26.83;60.63;100340.59;4290571;33;20121;-92
2023/08/12 08:33:19;;;;;;;0.37;0.15;;;;;;;26.90;60.63;100339.06;4290487;33;20116;-92
2023/08/12 08:35:44;;;;;;;0.10;0.10;;;;;;;26.97;60.64;100340.19;4278580;33;20152;-94
2023/08/12 08:38:10;;;;;;;0.68;0.30;;;;;;;27.00;60.63;100334.63;4278541;33;20162;-94
2023/08/12 08:40:36;;;;;;;0.00;0.00;;;;;;;27.20;60.65;100335.44;4278585;33;20507;-95
2023/08/12 08:43:03;;;;;;;0.30;0.30;;;;;;;27.30;60.65;100338.97;4290274;33;20133;-94
2023/08/12 08:45:29;;;;;;;0.75;0.20;;;;;;;27.53;60.67;100337.66;4290273;33;20097;-94
2023/08/12 08:47:54;;;;;;;0.13;0.13;;;;;;;27.62;60.67;100330.62;4290302;33;20107;-94
2023/08/12 08:50:20;;;;;;;0.10;0.10;;;;;;;27.80;60.67;100331.56;4290380;33;20159;-94
2023/08/12 08:52:46;;;;;;;0.10;0.10;;;;;;;28.04;60.69;100331.06;4278384;33;20109;-94
2023/08/12 08:55:11;;;;;;;0.03;0.03;;;;;;;28.01;60.69;100326.00;4290192;33;20194;-93
2023/08/12 08:57:37;;;;;;;0.43;0.43;;;;;;;28.21;60.69;100317.91;4278266;33;20151;-94
2023/08/12 09:00:07;;;;;;;0.30;0.30;;;;;;;28.31;60.71;100327.59;4290334;33;20117;-94
2023/08/12 09:02:33;;;;;;;0.30;0.30;;;;;;;28.72;60.73;100330.72;4290135;33;20139;-92
2023/08/12 09:04:58;;;;;;;0.00;0.00;;;;;;;28.85;60.74;100323.19;4278108;33;20105;-92
2023/08/12 09:07:23;;;;;;;0.00;0.00;;;;;;;28.80;60.73;100320.09;4290168;33;20156;-94
2023/08/12 09:09:49;;;;;;;0.40;0.40;;;;;;;28.85;60.74;100317.81;4278167;33;20457;-92
2023/08/12 09:12:15;;;;;;;0.10;0.10;;;;;;;28.86;60.74;100319.50;4278130;33;20356;-92
2023/08/12 09:14:41;;;;;;;0.00;0.00;;;;;;;28.98;60.74;100314.78;4289747;33;20084;-92
2023/08/12 09:17:07;;;;;;;0.30;0.28;;;;;;;29.08;60.74;100314.69;4290124;33;20144;-93
2023/08/12 09:19:32;;;;;;;0.37;0.37;;;;;;;29.26;60.76;100310.16;4278033;33;20160;-93
2023/08/12 09:21:57;;;;;;;0.00;0.00;;;;;;;29.43;60.76;100311.97;4278088;33;20157;-92
2023/08/12 09:24:27;;;;;;;0.15;0.13;;;;;;;29.56;60.78;100307.03;4291761;33;20155;-92
2023/08/12 09:27:11;;;;;;;0.08;0.03;;;;;;;29.77;60.78;100306.66;4291717;33;20112;-92
2023/08/12 09:29:36;;;;;;;0.00;0.00;;;;;;;29.84;60.78;100302.38;4302319;33;20116;-93
2023/08/12 09:32:07;;;;;;;1.60;0.98;;;;;;;30.09;60.79;100303.34;4279772;33;20163;-93
2023/08/12 09:34:32;;;;;;;1.23;0.70;;;;;;;30.38;60.81;100302.13;4291682;33;20113;-92
2023/08/12 09:36:58;;;;;;;0.13;0.13;;;;;;;30.49;60.81;100293.72;4291746;33;20132;-92
2023/08/12 09:39:23;;;;;;;0.00;0.00;;;;;;;30.76;60.82;100289.97;4279897;33;20155;-91
2023/08/12 09:41:49;;;;;;;0.10;0.10;;;;;;;30.72;60.83;100285.91;4291917;33;20378;-91
2023/08/12 09:44:14;;;;;;;0.00;0.00;;;;;;;30.89;60.83;100287.63;4291044;33;32361;-91
2023/08/12 09:46:40;;;;;;;0.20;0.20;;;;;;;31.04;60.84;100287.81;4291704;33;20167;-91
2023/08/12 09:49:06;;;;;;;0.10;0.10;;;;;;;31.06;60.84;100278.56;4291511;33;20485;-90
2023/08/12 09:51:36;;;;;;;0.10;0.10;;;;;;;31.30;60.85;100275.06;4291658;33;20151;-91
2023/08/12 09:54:02;;;;;;;;;;;;;;;31.44;60.87;100281.56;4292052;33;20109;-91
2023/08/12 09:56:28;;;;;;;1.37;0.40;;;;;;;31.42;60.86;100281.75;4304931;33;19990;-91
2023/08/12 09:58:53;;;;;;;0.10;0.10;;;;;;;31.53;60.86;100275.19;4291554;33;20181;-90
2023/08/12 10:01:22;;;;;;;0.73;0.28;;;;;;;31.80;60.88;100271.25;4291725;33;20160;-90
2023/08/12 10:03:51;;;;;;;0.00;0.00;;;;;;;31.81;60.89;100274.78;4291559;33;20069;-91
2023/08/12 10:06:17;;;;;;;0.15;0.15;;;;;;;32.11;60.89;100275.84;4291808;33;20112;-91
2023/08/12 10:08:42;;;;;;;0.28;0.20;;;;;;;32.38;60.91;100259.22;4291612;33;20101;-91
2023/08/12 10:11:08;;;;;;;0.43;0.37;;;;;;;32.15;60.90;100261.84;4291601;33;20150;-92
2023/08/12 10:13:34;;;;;;;0.20;0.20;;;;;;;32.21;60.90;100263.84;4290711;33;26763;-91
2023/08/12 10:15:59;;;;;;;0.10;0.10;;;;;;;32.10;60.89;100260.69;4279640;33;20120;-91
2023/08/12 10:18:25;;;;;;;0.03;0.03;;;;;;;31.86;60.88;100267.03;4279521;33;20345;-91
2023/08/12 10:20:50;;;;;;;0.43;0.43;;;;;;;31.48;60.87;100269.47;4278977;33;27795;-91
2023/08/12 10:23:17;;;;;;;3.97;1.55;;;;;;;31.39;60.87;100268.63;4279536;33;20408;-91
2023/08/12 10:25:43;;;;;;;0.43;0.35;;;;;;;31.11;60.85;100262.75;4291399;33;20160;-91
2023/08/12 10:28:08;;;;;;;0.40;0.17;;;;;;;31.05;60.85;100267.97;4291456;33;20528;-91
2023/08/12 10:30:34;;;;;;;0.43;0.10;;;;;;;31.07;60.85;100261.41;4279561;33;20121;-91
2023/08/12 10:33:00;;;;;;;0.25;0.15;;;;;;;30.97;60.84;100265.28;4291638;33;20100;-90
2023/08/12 10:35:40;;;;;;;0.00;0.00;;;;;;;30.78;60.84;100266.47;4291061;33;20101;-91
2023/08/12 10:38:05;;;;;;;0.10;0.10;;;;;;;30.71;60.83;100268.13;4291171;33;20157;-90
2023/08/12 10:40:31;;;;;;;0.00;0.00;;;;;;;30.55;60.83;100267.06;4279453;33;20108;-90
2023/08/12 10:42:56;;;;;;;0.17;0.17;;;;;;;30.45;60.82;100260.16;4278899;33;27874;-91
2023/08/12 10:45:22;;;;;;;0.20;0.20;;;;;;;30.40;60.82;100259.81;4278766;33;27407;-91
2023/08/12 10:48:00;;;;;;;0.10;0.10;;;;;;;30.29;60.82;100258.28;4278938;33;20505;-91
2023/08/12 10:50:25;;;;;;;0.50;0.50;;;;;;;30.43;60.81;100254.94;4303445;33;20221;-91
2023/08/12 10:52:52;;;;;;;0.05;0.05;;;;;;;30.36;60.82;100250.41;4279204;33;20109;-91
2023/08/12 10:55:24;;;;;;;0.00;0.00;;;;;;;30.59;60.83;100245.25;4291144;33;20069;-91
2023/08/12 10:57:51;;;;;;;0.08;0.08;;;;;;;30.84;60.84;100246.97;4291003;33;20149;-91
2023/08/12 11:00:23;;;;;;;0.57;0.20;;;;;;;30.96;60.85;100244.78;4291271;33;20172;-90
2023/08/12 11:02:50;;;;;;;0.00;0.00;;;;;;;31.09;60.86;100245.13;4291009;33;20060;-91
2023/08/12 11:05:16;;;;;;;1.55;0.30;;;;;;;31.32;60.87;100243.44;4303101;33;20109;-91
2023/08/12 11:07:54;;;;;;;0.00;0.00;;;;;;;31.52;60.87;100235.81;4291510;33;20157;-90
2023/08/12 11:10:22;;;;;;;0.05;0.05;;;;;;;31.73;60.89;100240.69;4302092;33;20131;-91
2023/08/12 11:12:49;;;;;;;0.82;0.65;;;;;;;31.60;60.88;100237.66;4291098;33;20084;-91
2023/08/12 11:15:14;;;;;;;0.35;0.35;;;;;;;31.43;60.87;100231.47;4303265;33;20097;-90
2023/08/12 11:17:40;;;;;;;0.00;0.00;;;;;;;31.45;60.87;100227.59;4278301;33;36907;-91
2023/08/12 11:20:07;;;;;;;0.05;0.05;;;;;;;31.32;60.87;100221.06;4291203;33;20116;-90
2023/08/12 11:22:36;;;;;;;0.37;0.30;;;;;;;31.43;60.87;100215.31;4291227;33;20096;-90
2023/08/12 11:25:02;;;;;;;0.82;0.55;;;;;;;31.85;60.89;100215.03;4290745;33;20113;-90
2023/08/12 11:27:27;;;;;;;0.17;0.17;;;;;;;32.20;60.91;100202.91;4279114;33;20101;-92
2023/08/12 11:29:53;;;;;;;0.20;0.20;;;;;;;32.49;60.92;100196.84;4291083;33;20134;-91
2023/08/12 11:32:19;;;;;;;0.10;0.10;;;;;;;32.67;60.92;100196.56;4279942;33;20589;-90
2023/08/12 11:34:44;;;;;;;0.00;0.00;;;;;;;32.96;60.95;100196.66;4293655;33;20085;-91
2023/08/12 11:37:10;;;;;;;0.20;0.20;;;;;;;33.17;60.96;100198.66;4278718;33;20152;-91
2023/08/12 11:39:35;;;;;;;0.15;0.15;;;;;;;33.13;60.95;100191.94;4279284;33;20134;-91
2023/08/12 11:42:00;;;;;;;0.00;0.00;;;;;;;33.26;60.96;100194.00;4278963;33;20092;-90
2023/08/12 11:44:26;;;;;;;0.15;0.15;;;;;;;33.53;60.97;100184.44;4279032;33;20107;-91
2023/08/12 11:46:51;;;;;;;0.10;0.10;;;;;;;33.49;60.98;100189.37;4279198;33;20129;-91
2023/08/12 11:49:18;;;;;;;0.20;0.20;;;;;;;33.78;60.98;100190.38;4290330;33;33070;-91
2023/08/12 11:51:43;;;;;;;0.00;0.00;;;;;;;34.14;61.00;100182.31;4291129;33;20110;-92
2023/08/12 11:54:09;;;;;;;0.13;0.10;;;;;;;34.42;61.01;100175.16;4279012;33;20081;-92
2023/08/12 11:56:34;;;;;;;0.10;0.10;;;;;;;34.70;61.03;100174.34;4278900;33;20411;-91
2023/08/12 11:59:00;;;;;;;0.15;0.15;;;;;;;34.93;61.04;100171.44;4279017;33;20617;-92
2023/08/12 12:01:25;;;;;;;0.10;0.10;;;;;;;35.05;61.04;100175.31;4278878;33;20092;-92
2023/08/12 12:03:51;;;;;;;0.13;0.13;;;;;;;35.02;61.05;100173.00;4290856;33;20415;-92
2023/08/12 12:06:17;;;;;;;0.40;0.40;;;;;;;34.93;61.05;100166.88;4290741;33;20113;-92
2023/08/12 12:08:44;;;;;;;2.65;1.42;;;;;;;34.95;61.05;100175.63;4290927;33;20148;-92
2023/08/12 12:11:10;;;;;;;1.08;0.55;;;;;;;34.54;61.02;100161.09;4290881;33;20792;-91
2023/08/12 12:13:35;;;;;;;0.30;0.30;;;;;;;33.92;60.99;100162.53;4290681;33;20119;-91
2023/08/12 12:16:01;;;;;;;0.10;0.10;;;;;;;33.42;60.97;100163.31;4278871;33;20108;-92
2023/08/12 12:18:26;;;;;;;0.20;0.20;;;;;;;32.73;60.93;100166.16;4278973;33;20088;-92
2023/08/12 12:20:56;;;;;;;0.32;0.32;;;;;;;32.50;60.92;100166.19;4290411;33;20088;-91
2023/08/12 12:23:21;;;;;;;10.60;1.00;;;;;;;32.44;60.92;100161.53;4290518;33;20153;-91
2023/08/12 12:25:47;;;;;;;0.00;0.00;;;;;;;32.34;60.92;100158.22;4290510;33;20101;-91
2023/08/12 12:28:12;;;;;;;0.30;0.30;;;;;;;32.14;60.91;100157.81;4278583;33;20105;-91
2023/08/12 12:30:38;;;;;;;0.00;0.00;;;;;;;31.90;60.90;100161.50;4278663;33;20104;-92
2023/08/12 12:33:04;;;;;;;0.05;0.05;;;;;;;31.82;60.90;100160.72;4290692;33;20147;-91
2023/08/12 12:35:29;;;;;;;0.00;0.00;;;;;;;31.83;60.90;100147.06;4290845;33;20101;-92
2023/08/12 12:37:55;;;;;;;0.40;0.32;;;;;;;31.86;60.90;100149.41;4278534;33;20161;-91
2023/08/12 12:40:20;;;;;;;0.08;0.08;;;;;;;31.82;60.90;100152.63;4290573;33;20171;-91
2023/08/12 12:42:45;;;;;;;0.08;0.08;;;;;;;31.80;60.89;100152.81;4278684;33;20106;-91
2023/08/12 12:45:11;;;;;;;0.20;0.20;;;;;;;32.10;60.90;100142.19;4278009;33;28409;-91
2023/08/12 12:47:37;;;;;;;0.37;0.37;;;;;;;32.24;60.92;100138.75;4278669;33;20105;-91
2023/08/12 12:50:03;;;;;;;0.20;0.10;;;;;;;31.81;60.90;100146.41;4278555;33;20170;-91
2023/08/12 12:52:28;;;;;;;0.05;0.05;;;;;;;31.77;60.89;100142.41;4278540;33;20097;-91
2023/08/12 12:54:55;;;;;;;0.00;0.00;;;;;;;31.90;60.89;100139.13;4278451;33;20126;-91
2023/08/12 12:57:20;;;;;;;0.00;0.00;;;;;;;31.84;60.89;100131.75;4278162;33;20096;-91
2023/08/12 12:59:45;;;;;;;0.00;0.00;;;;;;;31.82;60.89;100134.63;4278536;33;20118;-91
2023/08/12 13:02:11;;;;;;;0.10;0.10;;;;;;;31.85;60.89;100131.59;4290129;33;20096;-91
2023/08/12 13:04:36;;;;;;;0.10;0.10;;;;;;;32.05;60.91;100134.66;4302096;33;20933;-91
2023/08/12 13:07:02;;;;;;;0.25;0.20;;;;;;;32.17;60.91;100125.13;4278456;33;20105;-91
2023/08/12 13:09:27;;;;;;;1.55;0.47;;;;;;;32.25;60.91;100118.87;4282794;33;20143;-91
2023/08/12 13:11:56;;;;;;;0.00;0.00;;;;;;;32.06;60.91;100120.19;4281662;33;20116;-91
2023/08/12 13:14:22;;;;;;;0.10;0.10;;;;;;;32.17;60.91;100121.59;4290177;33;20135;-91
2023/08/12 13:16:48;;;;;;;0.10;0.00;;;;;;;32.18;60.91;100123.28;4289847;33;20065;-91
2023/08/12 13:19:13;;;;;;;0.65;0.65;;;;;;;32.39;60.92;100110.00;4277738;33;20209;-91
2023/08/12 13:21:38;;;;;;;0.00;0.00;;;;;;;32.64;60.93;100116.88;4290062;33;20453;-91
2023/08/12 13:24:04;;;;;;;0.37;0.37;;;;;;;32.90;60.94;100107.56;4277517;33;20097;-91
2023/08/12 13:26:30;;;;;;;0.00;0.00;;;;;;;32.80;60.94;100112.38;4277681;33;20109;-90
2023/08/12 13:28:55;;;;;;;0.17;0.17;;;;;;;32.65;60.93;100115.00;4289758;33;20139;-91
2023/08/12 13:31:21;;;;;;;0.25;0.20;;;;;;;32.68;60.94;100103.88;4301666;33;20089;-91
2023/08/12 13:33:47;;;;;;;0.00;0.00;;;;;;;32.60;60.93;100110.16;4289733;33;20127;-91
2023/08/12 13:36:12;;;;;;;0.32;0.32;;;;;;;32.56;60.93;100102.63;4289813;33;20172;-91
2023/08/12 13:38:38;;;;;;;0.13;0.13;;;;;;;32.79;60.94;100095.38;4289624;33;20193;-91
2023/08/12 13:41:03;;;;;;;0.03;0.03;;;;;;;32.61;60.93;100102.91;4277720;33;20151;-91